Time;durP1;ratioP1;P1;durP2;ratioP2;P2;SDS_P1;SDS_P2;PMS_P1;PMS_P2;Temp;Humidity;BMP_temperature;BMP_pressure;BME280_temperature;BME280_humidity;BME280_pressure;Samples;Min_cycle;Max_cycle;Signal;HPM_P1;HPM_P2
2022/01/20 00:03:45;;;;;;;3.65;0.52;;;;;;;1.14;55.80;101774.84;5006824;28;20048;-71
2022/01/20 00:07:10;;;;;;;5.90;0.52;;;;;;;1.23;55.57;101764.66;5009856;28;20443;-70
2022/01/20 00:09:21;;;;;;;14.40;0.55;;;;;;;0.74;56.64;101766.53;5007445;28;21935;-71
2022/01/20 00:28:16;;;;;;;16.80;1.63;;;;;;;1.62;53.74;101772.06;5010067;28;20080;-71
2022/01/20 00:31:05;;;;;;;10.20;1.23;;;;;;;1.30;54.16;101769.03;5019785;28;20041;-73
2022/01/20 00:33:40;;;;;;;15.82;0.63;;;;;;;1.21;55.23;101767.22;5023178;28;20037;-72
2022/01/20 00:38:31;;;;;;;11.82;0.90;;;;;;;1.55;55.49;101772.84;5021944;28;20099;-71
2022/01/20 00:40:57;;;;;;;18.50;1.73;;;;;;;1.20;56.50;101790.38;5008704;28;20041;-71
2022/01/20 00:43:23;;;;;;;15.45;1.25;;;;;;;1.18;57.12;101841.00;5022588;28;20052;-71
2022/01/20 00:45:49;;;;;;;7.60;0.85;;;;;;;0.40;59.24;101827.75;5008449;28;20452;-71
2022/01/20 00:48:17;;;;;;;9.15;0.20;;;;;;;0.37;58.61;101825.13;5008545;28;20042;-74
2022/01/20 00:50:45;;;;;;;6.40;0.20;;;;;;;0.25;58.67;101824.03;5012701;28;20125;-74
2022/01/20 00:53:10;;;;;;;11.40;0.75;;;;;;;-0.30;59.93;101806.69;5007701;28;20425;-74
2022/01/20 00:55:38;;;;;;;5.85;0.15;;;;;;;-0.13;59.60;101795.91;5008643;28;20087;-75
2022/01/20 00:58:04;;;;;;;9.18;0.63;;;;;;;0.43;58.06;101802.06;5006606;28;20487;-75
2022/01/20 01:00:33;;;;;;;5.10;0.22;;;;;;;0.11;59.08;101804.09;5009071;28;20038;-75
2022/01/20 01:02:59;;;;;;;4.72;0.10;;;;;;;-0.02;59.46;101793.56;5007420;28;20060;-74
2022/01/20 01:05:26;;;;;;;4.70;0.40;;;;;;;0.37;58.39;101786.56;5009252;28;20033;-75
2022/01/20 01:07:54;;;;;;;7.88;0.15;;;;;;;0.34;58.16;101781.34;5007382;28;20042;-74
2022/01/20 01:10:27;;;;;;;4.28;0.20;;;;;;;0.30;58.61;101784.69;5005058;28;20056;-74
2022/01/20 01:13:04;;;;;;;2.15;0.10;;;;;;;0.65;57.66;101793.84;5036821;28;20518;-74
2022/01/20 01:15:37;;;;;;;4.50;0.17;;;;;;;0.35;58.76;101801.09;5022104;28;20033;-73
2022/01/20 01:23:31;;;;;;;7.20;0.28;;;;;;;0.71;58.38;101802.53;5006743;28;20042;-75
2022/01/20 01:25:59;;;;;;;5.65;0.50;;;;;;;0.51;59.56;101846.81;5024007;28;20029;-75
2022/01/20 01:28:27;;;;;;;12.48;1.38;;;;;;;0.34;59.25;101853.34;5040429;28;20406;-74
2022/01/20 01:33:32;;;;;;;2.65;0.10;;;;;;;-0.08;58.83;101854.25;5016813;28;20052;-74
2022/01/20 01:35:59;;;;;;;5.70;0.10;;;;;;;-0.37;59.22;101847.69;5024251;28;20396;-73
2022/01/20 01:38:35;;;;;;;5.38;0.35;;;;;;;-0.65;60.67;101851.38;5007416;28;20049;-70
2022/01/20 01:41:16;;;;;;;3.25;0.25;;;;;;;0.08;58.60;101830.59;5020859;28;20034;-71
2022/01/20 01:43:50;;;;;;;3.70;0.20;;;;;;;-0.29;59.11;101868.41;5023129;28;20037;-70
2022/01/20 01:46:16;;;;;;;1.10;0.35;;;;;;;-0.42;59.46;101872.41;5020817;28;20077;-70
2022/01/20 01:48:43;;;;;;;2.75;0.20;;;;;;;-0.54;58.93;101851.59;5011531;28;20042;-71
2022/01/20 01:51:12;;;;;;;5.53;0.55;;;;;;;-0.25;57.50;101841.94;5022122;28;20052;-71
2022/01/20 01:53:41;;;;;;;2.75;0.30;;;;;;;-0.00;55.91;101837.28;5021318;28;20034;-71
2022/01/20 01:56:08;;;;;;;15.82;1.45;;;;;;;-0.10;55.91;101833.69;5023398;28;20021;-72
2022/01/20 01:58:36;;;;;;;3.90;0.68;;;;;;;-0.13;55.74;101842.16;5020026;28;20090;-73
2022/01/20 02:01:14;;;;;;;9.82;1.20;;;;;;;0.09;55.70;101840.03;5027675;28;20041;-73
2022/01/20 02:03:46;;;;;;;11.52;1.25;;;;;;;0.18;56.03;101837.63;5040475;28;20052;-72
2022/01/20 02:09:16;;;;;;;17.60;1.13;;;;;;;0.18;56.71;101835.06;5038516;28;21179;-74
2022/01/20 02:19:58;;;;;;;10.93;1.42;;;;;;;-0.43;57.41;101887.81;5040282;28;20028;-74
2022/01/20 02:22:32;;;;;;;9.18;1.15;;;;;;;-0.47;56.77;101866.31;5024560;28;20099;-74
2022/01/20 02:25:21;;;;;;;10.55;1.50;;;;;;;-0.23;56.01;101868.53;5041955;28;20064;-74
2022/01/20 02:27:47;;;;;;;22.83;1.85;;;;;;;-0.00;55.60;101870.69;5040411;28;20133;-74
2022/01/20 02:30:19;;;;;;;14.85;0.85;;;;;;;-0.30;56.08;101860.66;5040920;28;20059;-75
2022/01/20 02:33:16;;;;;;;30.60;2.22;;;;;;;0.11;54.44;101866.63;5039401;28;20406;-74
2022/01/20 02:35:45;;;;;;;10.82;1.40;;;;;;;-0.15;54.85;101867.00;5014054;28;20045;-74
2022/01/20 02:38:26;;;;;;;18.00;2.05;;;;;;;-0.05;53.99;101859.47;5022774;28;20576;-74
2022/01/20 02:46:23;;;;;;;21.27;1.45;;;;;;;0.12;52.31;101855.50;5020196;28;20116;-74
2022/01/20 02:48:49;;;;;;;19.23;2.08;;;;;;;0.04;50.82;101864.78;5008567;28;20402;-74
2022/01/20 02:51:14;;;;;;;12.88;0.70;;;;;;;0.39;47.43;101867.16;5022597;28;20060;-74
2022/01/20 02:53:41;;;;;;;7.85;0.70;;;;;;;0.55;45.60;101869.16;5018754;28;20041;-75
2022/01/20 02:56:09;;;;;;;10.75;0.80;;;;;;;0.03;46.33;101875.88;4996394;28;20033;-73
2022/01/20 02:58:37;;;;;;;8.50;0.68;;;;;;;0.27;44.83;101878.94;4991893;28;20034;-73
2022/01/20 03:01:05;;;;;;;13.05;1.77;;;;;;;0.45;44.81;101867.25;5020632;28;20026;-74
2022/01/20 03:03:31;;;;;;;12.98;0.93;;;;;;;-0.03;45.51;101868.09;5007807;28;20171;-75
2022/01/20 03:05:56;;;;;;;10.55;1.05;;;;;;;-0.19;44.93;101878.03;5007470;28;20585;-75
2022/01/20 03:08:24;;;;;;;7.18;1.17;;;;;;;0.08;44.06;101866.59;5022427;28;20156;-71
2022/01/20 03:10:49;;;;;;;6.45;0.90;;;;;;;-0.58;43.40;101878.91;5019614;28;20052;-72
2022/01/20 03:13:15;;;;;;;7.38;0.50;;;;;;;-0.14;42.74;101879.00;4996637;28;20167;-72
2022/01/20 03:15:43;;;;;;;8.68;1.52;;;;;;;-0.35;42.74;101883.69;5009931;28;20517;-72
2022/01/20 03:18:08;;;;;;;3.40;0.93;;;;;;;-0.40;42.62;101891.28;5019930;28;20038;-72
2022/01/20 03:20:35;;;;;;;12.88;0.90;;;;;;;0.15;42.05;101894.16;5013095;28;20088;-72
2022/01/20 03:23:01;;;;;;;6.78;0.57;;;;;;;-0.03;42.59;101899.78;4990759;28;20049;-72
2022/01/20 03:25:29;;;;;;;6.47;0.25;;;;;;;-0.01;43.52;101900.69;5005387;28;20569;-72
2022/01/20 03:27:58;;;;;;;12.30;1.33;;;;;;;0.59;42.80;101903.53;5012824;28;20073;-72
2022/01/20 03:30:26;;;;;;;13.73;1.17;;;;;;;0.48;43.82;101903.34;5007098;28;20041;-74
2022/01/20 03:32:53;;;;;;;11.25;1.40;;;;;;;0.51;44.70;101905.97;5004518;28;20101;-71
2022/01/20 03:35:19;;;;;;;11.60;0.82;;;;;;;-0.05;45.41;101898.88;5004155;28;20038;-71
2022/01/20 03:38:04;;;;;;;6.47;0.55;;;;;;;0.21;44.88;101914.84;5019878;28;20593;-71
2022/01/20 03:40:30;;;;;;;13.48;1.33;;;;;;;0.16;44.69;101911.28;5012263;28;20039;-72
2022/01/20 03:42:55;;;;;;;13.95;1.38;;;;;;;-0.24;46.85;101950.72;5022977;28;20038;-71
2022/01/20 03:45:26;;;;;;;5.70;0.60;;;;;;;-0.56;47.96;101930.31;5008758;28;20549;-75
2022/01/20 03:47:55;;;;;;;7.65;0.30;;;;;;;-0.22;47.98;101931.91;5005430;28;20045;-76
2022/01/20 03:53:06;;;;;;;3.60;0.20;;;;;;;-0.07;49.62;101938.25;4999275;28;20073;-75
2022/01/20 03:55:34;;;;;;;10.43;1.05;;;;;;;-0.20;51.13;101948.25;4997101;28;20121;-75
2022/01/20 03:58:08;;;;;;;16.35;1.58;;;;;;;-0.09;51.14;101948.47;4999202;28;20052;-71
2022/01/20 04:00:37;;;;;;;11.77;0.73;;;;;;;-0.21;50.96;101941.38;5015610;28;20479;-70
2022/01/20 04:03:28;;;;;;;10.18;1.02;;;;;;;-0.26;50.48;101936.97;5007418;28;20562;-71
2022/01/20 04:06:02;;;;;;;11.20;1.23;;;;;;;-1.06;51.57;101946.22;5010864;28;20771;-70
2022/01/20 04:08:34;;;;;;;15.88;0.70;;;;;;;-0.85;52.86;101966.41;5004544;28;20502;-70
2022/01/20 04:11:06;;;;;;;13.25;1.45;;;;;;;-0.65;53.13;101959.22;5023935;28;20033;-70
2022/01/20 04:13:32;;;;;;;4.30;0.57;;;;;;;-1.45;55.55;101977.66;5021209;28;20041;-70
2022/01/20 04:16:11;;;;;;;8.60;0.30;;;;;;;-1.13;53.89;101959.69;5005797;28;20084;-70
2022/01/20 04:18:39;;;;;;;4.43;0.47;;;;;;;-0.89;51.78;101963.75;5006428;28;20038;-75
2022/01/20 04:21:07;;;;;;;7.90;0.52;;;;;;;-0.82;50.54;101955.34;5011795;28;20034;-73
2022/01/20 04:23:33;;;;;;;8.43;0.70;;;;;;;-0.77;50.31;101943.53;4995064;28;20502;-74
2022/01/20 04:26:03;;;;;;;6.88;1.38;;;;;;;-0.93;50.08;101942.25;5011132;28;20561;-74
2022/01/20 04:28:29;;;;;;;3.90;0.45;;;;;;;-0.71;49.63;101938.50;5009481;28;20702;-74
2022/01/20 04:30:54;;;;;;;5.88;0.77;;;;;;;-0.78;49.88;101936.63;5009618;28;20036;-74
2022/01/20 04:33:20;;;;;;;9.95;0.70;;;;;;;-0.82;50.95;101945.09;5010475;28;20148;-74
2022/01/20 04:35:46;;;;;;;5.88;0.32;;;;;;;-0.41;50.43;101948.66;5008093;28;20037;-74
2022/01/20 04:38:11;;;;;;;11.73;0.80;;;;;;;-0.51;51.22;101945.81;5025166;28;20143;-74
2022/01/20 04:40:41;;;;;;;8.18;1.15;;;;;;;-0.96;52.68;101955.00;5021940;28;20034;-74
2022/01/20 04:43:09;;;;;;;11.93;0.80;;;;;;;-0.85;51.45;101948.44;5023433;28;20052;-76
2022/01/20 04:45:42;;;;;;;9.40;0.98;;;;;;;-1.03;50.82;101954.00;5000130;28;20037;-73
2022/01/20 04:48:20;;;;;;;10.30;0.30;;;;;;;-0.56;49.72;101979.97;5015738;28;20036;-71
2022/01/20 04:59:05;;;;;;;3.63;0.22;;;;;;;-1.68;56.39;101974.44;5007549;28;20571;-76
2022/01/20 05:01:31;;;;;;;6.53;0.50;;;;;;;-1.59;55.44;101991.78;5004520;28;20052;-74
2022/01/20 05:04:09;;;;;;;8.20;0.22;;;;;;;-1.70;55.38;101975.22;5009609;28;20417;-74
2022/01/20 05:07:00;;;;;;;6.07;0.40;;;;;;;-1.41;54.72;101984.59;5016307;28;20750;-75
2022/01/20 05:09:27;;;;;;;8.07;0.90;;;;;;;-1.13;53.99;101993.03;5023145;28;20033;-75
2022/01/20 05:12:07;;;;;;;14.05;0.95;;;;;;;-0.81;53.23;101999.03;5009865;28;20033;-75
2022/01/20 05:14:35;;;;;;;9.10;0.90;;;;;;;-0.85;53.69;101996.38;5006678;28;20309;-74
2022/01/20 05:17:00;;;;;;;11.63;1.58;;;;;;;-0.89;52.69;101987.69;4995587;28;20049;-73
2022/01/20 05:19:28;;;;;;;10.75;1.27;;;;;;;-0.97;51.67;101995.22;5006277;28;20486;-72
2022/01/20 05:21:56;;;;;;;11.68;0.63;;;;;;;-1.19;50.50;101990.31;5000630;28;20386;-71
2022/01/20 05:24:27;;;;;;;15.00;1.15;;;;;;;-0.59;48.55;101991.88;5022744;28;20039;-70
2022/01/20 05:26:57;;;;;;;7.45;0.77;;;;;;;-0.42;48.13;102007.69;4995425;28;20034;-72
2022/01/20 05:29:23;;;;;;;9.98;0.75;;;;;;;-0.30;47.48;102007.97;4997684;28;20037;-71
2022/01/20 05:31:50;;;;;;;9.82;2.25;;;;;;;-0.05;47.03;102017.13;5022283;28;20684;-71
2022/01/20 05:34:17;;;;;;;19.67;0.95;;;;;;;0.20;46.52;102040.78;5027904;28;20038;-72
2022/01/20 05:36:46;;;;;;;8.90;1.05;;;;;;;-0.77;50.59;102030.81;5012785;28;20060;-73
2022/01/20 05:39:11;;;;;;;16.35;2.42;;;;;;;-0.91;52.48;102025.28;5017785;28;20573;-76
2022/01/20 05:41:37;;;;;;;11.07;0.95;;;;;;;-1.00;53.29;102038.75;5005829;28;20051;-72
2022/01/20 05:44:12;;;;;;;3.65;0.68;;;;;;;-0.54;50.29;102039.09;4999758;28;20514;-70
2022/01/20 05:46:45;;;;;;;5.95;1.27;;;;;;;-0.36;48.90;102034.38;4991464;28;20087;-72
2022/01/20 05:49:24;;;;;;;6.82;0.38;;;;;;;-0.52;48.01;102027.16;5022426;28;20047;-71
2022/01/20 05:51:57;;;;;;;4.75;0.50;;;;;;;-0.32;45.83;102019.06;5030712;28;20449;-72
2022/01/20 05:54:25;;;;;;;9.27;0.52;;;;;;;-0.27;43.58;102022.59;5005809;28;20025;-73
2022/01/20 05:56:51;;;;;;;13.35;1.52;;;;;;;-0.02;42.85;102021.44;5015067;28;20041;-73
2022/01/20 05:59:17;;;;;;;7.53;0.20;;;;;;;-0.28;42.90;102016.59;5020964;28;20030;-73
2022/01/20 06:01:52;;;;;;;6.60;0.95;;;;;;;-0.16;42.51;102037.44;4991353;28;20033;-74
2022/01/20 06:04:18;;;;;;;5.47;0.50;;;;;;;-0.45;42.66;102025.59;5012275;28;20041;-74
2022/01/20 06:06:44;;;;;;;8.98;0.75;;;;;;;-0.46;43.24;102031.56;5012471;28;20120;-74
2022/01/20 06:09:10;;;;;;;11.32;1.67;;;;;;;-0.05;43.17;102029.09;5005697;28;20503;-74
2022/01/20 06:11:35;;;;;;;17.35;0.93;;;;;;;-0.04;43.18;102030.81;4993163;28;20475;-74
2022/01/20 06:14:03;;;;;;;16.13;0.88;;;;;;;0.34;43.20;102043.66;4987205;28;20037;-74
2022/01/20 06:16:31;;;;;;;6.57;0.63;;;;;;;-0.37;48.93;102060.03;4996663;28;20048;-73
2022/01/20 06:18:58;;;;;;;11.18;1.38;;;;;;;-0.37;50.43;102052.31;4995649;28;20379;-74
2022/01/20 06:21:23;;;;;;;10.35;1.00;;;;;;;-0.22;50.43;102057.81;5006335;28;20465;-74
2022/01/20 06:23:49;;;;;;;7.85;1.15;;;;;;;-0.94;51.73;102083.41;5021523;28;20029;-74
2022/01/20 06:26:17;;;;;;;8.50;1.13;;;;;;;-1.61;54.00;102098.56;5021447;28;20423;-74
2022/01/20 06:28:45;;;;;;;12.88;0.93;;;;;;;-1.22;53.37;102092.84;4994867;28;20091;-73
2022/01/20 06:31:12;;;;;;;8.65;0.75;;;;;;;-1.55;54.45;102085.94;5006822;28;20125;-73
2022/01/20 06:33:38;;;;;;;12.60;1.02;;;;;;;-1.24;54.37;102073.97;4996244;28;20112;-74
2022/01/20 06:36:05;;;;;;;4.10;0.68;;;;;;;-1.26;54.22;102062.81;5024088;28;20407;-74
2022/01/20 06:38:31;;;;;;;13.55;1.00;;;;;;;-0.96;53.07;102065.38;5006434;28;20045;-73
2022/01/20 06:40:59;;;;;;;9.40;0.60;;;;;;;-0.70;52.15;102072.91;4992134;28;20514;-74
2022/01/20 06:43:28;;;;;;;18.15;0.75;;;;;;;-0.71;52.19;102090.00;5004129;28;20411;-75
2022/01/20 06:45:56;;;;;;;10.07;1.50;;;;;;;-0.87;52.08;102105.81;5006271;28;20091;-74
2022/01/20 06:48:41;;;;;;;7.00;0.40;;;;;;;-1.20;52.11;102122.88;5004051;28;20515;-74
2022/01/20 06:51:25;;;;;;;5.97;0.40;;;;;;;-1.01;51.55;102119.16;5006211;28;20041;-74
2022/01/20 06:53:51;;;;;;;15.63;0.82;;;;;;;-1.45;54.31;102111.00;5011877;28;20046;-74
2022/01/20 06:56:17;;;;;;;11.27;1.30;;;;;;;-1.13;53.83;102093.09;5005893;28;20034;-73
2022/01/20 06:58:42;;;;;;;5.63;0.90;;;;;;;-1.33;54.60;102109.63;4989335;28;20490;-74
2022/01/20 07:01:08;;;;;;;17.92;0.95;;;;;;;-0.90;53.14;102108.31;5006622;28;20486;-74
2022/01/20 07:03:36;;;;;;;5.72;1.42;;;;;;;-0.77;51.93;102110.41;5020780;28;20057;-73
2022/01/20 07:06:02;;;;;;;9.50;0.88;;;;;;;-1.18;51.02;102110.94;5015678;28;20116;-74
2022/01/20 07:08:31;;;;;;;10.75;1.33;;;;;;;-0.83;48.18;102120.50;5022395;28;20095;-75
2022/01/20 07:10:57;;;;;;;15.82;1.25;;;;;;;-0.72;46.78;102137.06;4996294;28;20040;-74
2022/01/20 07:13:23;;;;;;;11.35;0.38;;;;;;;-0.47;45.55;102122.28;5008904;28;20045;-74
2022/01/20 07:15:48;;;;;;;7.57;0.50;;;;;;;-0.26;44.83;102128.00;5016677;28;20095;-74
2022/01/20 07:18:14;;;;;;;7.93;1.52;;;;;;;-0.49;45.40;102129.09;5024671;28;20518;-74
2022/01/20 07:20:40;;;;;;;12.25;0.77;;;;;;;0.07;44.63;102143.34;5001565;28;20171;-73
2022/01/20 07:23:12;;;;;;;17.63;1.48;;;;;;;-0.27;46.18;102159.63;5027837;28;20174;-73
2022/01/20 07:26:00;;;;;;;6.13;0.60;;;;;;;-0.32;46.53;102147.53;5012531;28;20083;-73
2022/01/20 07:28:26;;;;;;;9.18;0.93;;;;;;;0.11;45.72;102138.28;5024455;28;20510;-74
2022/01/20 07:30:52;;;;;;;6.55;0.90;;;;;;;-0.29;46.38;102153.59;5025892;28;20036;-74
2022/01/20 07:33:20;;;;;;;8.75;1.85;;;;;;;0.26;46.24;102160.09;5022810;28;20168;-74
2022/01/20 07:35:46;;;;;;;7.47;1.00;;;;;;;-0.21;46.27;102166.66;4999196;28;20040;-75
2022/01/20 07:38:12;;;;;;;10.60;0.77;;;;;;;-0.30;46.43;102175.00;4997883;28;20037;-75
2022/01/20 07:40:39;;;;;;;10.07;1.50;;;;;;;0.07;46.04;102169.06;5003823;28;20075;-75
2022/01/20 07:43:05;;;;;;;8.45;0.60;;;;;;;0.00;46.22;102169.72;5000069;28;20045;-75
2022/01/20 07:45:43;;;;;;;17.27;0.73;;;;;;;0.10;46.13;102168.28;5008761;28;20620;-75
2022/01/20 07:48:34;;;;;;;11.45;1.67;;;;;;;0.01;46.29;102168.03;4997472;28;20053;-75
2022/01/20 07:51:17;;;;;;;15.95;2.05;;;;;;;-0.08;46.59;102168.69;5010488;28;20060;-75
2022/01/20 07:53:43;;;;;;;18.83;1.17;;;;;;;-0.30;46.10;102172.41;4993198;28;20123;-75
2022/01/20 07:56:10;;;;;;;11.70;0.90;;;;;;;-0.02;44.51;102170.53;5024243;28;20593;-75
2022/01/20 07:58:36;;;;;;;10.77;0.77;;;;;;;0.27;44.39;102172.09;4998290;28;20041;-74
2022/01/20 08:01:04;;;;;;;6.50;0.73;;;;;;;-0.18;43.91;102166.72;4994603;28;20045;-74
2022/01/20 08:03:36;;;;;;;3.67;1.02;;;;;;;0.28;43.19;102173.84;5005274;28;20108;-73
2022/01/20 08:06:04;;;;;;;14.23;0.45;;;;;;;0.28;43.79;102173.84;5020483;28;20482;-73
2022/01/20 08:08:34;;;;;;;4.63;0.57;;;;;;;0.29;43.82;102172.16;4993363;28;20072;-74
2022/01/20 08:11:25;;;;;;;3.95;0.63;;;;;;;0.15;45.25;102176.97;5006496;28;20053;-73
2022/01/20 08:13:59;;;;;;;9.43;1.10;;;;;;;0.36;45.55;102170.59;4999345;28;20065;-72
2022/01/20 08:16:25;;;;;;;14.25;2.33;;;;;;;-0.21;47.22;102195.78;5005422;28;20498;-74
2022/01/20 08:18:53;;;;;;;3.13;0.22;;;;;;;-0.25;44.10;102186.25;5005694;28;20069;-74
2022/01/20 08:21:21;;;;;;;1.35;0.15;;;;;;;-0.56;41.18;102175.16;5021318;28;20041;-74
2022/01/20 08:23:48;;;;;;;4.25;0.32;;;;;;;-0.36;42.25;102183.38;5004402;28;20056;-74
2022/01/20 08:26:17;;;;;;;4.95;0.65;;;;;;;-0.11;43.27;102181.44;5004839;28;20565;-75
2022/01/20 08:28:42;;;;;;;5.57;0.57;;;;;;;-0.09;43.81;102184.94;5004218;28;20042;-73
2022/01/20 08:31:11;;;;;;;6.15;0.65;;;;;;;0.30;43.86;102188.44;5010931;28;20380;-74
2022/01/20 08:33:48;;;;;;;8.38;1.15;;;;;;;0.32;44.25;102173.91;5001194;28;20084;-74
2022/01/20 08:36:20;;;;;;;7.05;1.10;;;;;;;0.20;44.43;102187.34;5020326;28;20097;-74
2022/01/20 08:38:50;;;;;;;7.75;0.63;;;;;;;0.90;42.53;102175.22;4995727;28;20061;-74
2022/01/20 08:41:19;;;;;;;11.45;1.13;;;;;;;1.48;41.31;102180.69;5020230;28;20065;-74
2022/01/20 08:43:49;;;;;;;9.50;0.70;;;;;;;1.47;41.50;102190.13;5007701;28;20049;-73
2022/01/20 08:46:20;;;;;;;9.35;0.50;;;;;;;0.37;41.21;102186.06;5003371;28;20064;-74
2022/01/20 08:48:45;;;;;;;6.13;0.40;;;;;;;0.80;40.55;102186.16;5004168;28;20102;-73
2022/01/20 08:51:38;;;;;;;5.55;0.63;;;;;;;1.30;39.78;102186.31;5010225;28;20060;-74
2022/01/20 08:54:14;;;;;;;6.63;0.20;;;;;;;1.80;39.76;102194.19;5012948;28;20049;-74
2022/01/20 08:56:42;;;;;;;3.72;0.40;;;;;;;2.05;38.58;102179.97;5019536;28;20030;-74
2022/01/20 08:59:12;;;;;;;9.25;0.25;;;;;;;2.11;38.84;102195.56;5005835;28;20049;-74
2022/01/20 09:01:40;;;;;;;10.73;0.40;;;;;;;2.09;39.25;102194.66;5020420;28;20041;-73
2022/01/20 09:04:06;;;;;;;13.90;1.20;;;;;;;2.28;39.80;102197.53;5019203;28;20045;-73
2022/01/20 09:06:34;;;;;;;6.82;0.57;;;;;;;2.07;40.85;102208.38;5002914;28;20030;-74
2022/01/20 09:09:23;;;;;;;15.20;2.65;;;;;;;1.56;43.22;102225.53;5007086;28;20136;-73
2022/01/20 09:12:04;;;;;;;10.30;0.98;;;;;;;1.16;45.58;102224.69;4993143;28;20029;-73
2022/01/20 09:17:15;;;;;;;9.23;0.40;;;;;;;0.56;47.62;102225.94;5017608;28;20044;-73
2022/01/20 09:19:41;;;;;;;10.82;1.00;;;;;;;0.46;47.54;102229.16;4987520;28;20013;-74
2022/01/20 09:22:07;;;;;;;8.65;0.95;;;;;;;0.36;46.31;102237.47;5001504;28;20041;-75
2022/01/20 09:24:33;;;;;;;9.63;0.25;;;;;;;1.23;43.53;102231.69;5000366;28;20042;-74
2022/01/20 09:27:01;;;;;;;8.32;0.70;;;;;;;1.66;42.00;102242.91;5001260;28;20562;-75
2022/01/20 09:29:27;;;;;;;7.47;1.77;;;;;;;1.82;41.73;102235.44;5021489;28;20128;-74
2022/01/20 09:31:53;;;;;;;10.48;0.93;;;;;;;2.30;41.42;102232.84;5000879;28;20474;-74
2022/01/20 09:34:25;;;;;;;22.23;1.88;;;;;;;2.04;41.53;102234.09;5019983;28;20514;-73
2022/01/20 09:36:52;;;;;;;6.13;0.93;;;;;;;2.28;40.43;102234.53;5006555;28;20116;-75
2022/01/20 09:39:18;;;;;;;12.77;1.65;;;;;;;2.48;39.75;102234.84;5019856;28;20120;-74
2022/01/20 09:41:53;;;;;;;6.53;1.20;;;;;;;2.70;38.64;102248.09;5017703;28;20031;-74
2022/01/20 09:44:21;;;;;;;4.03;0.35;;;;;;;2.86;39.08;102254.34;5019259;28;20485;-74
2022/01/20 09:46:47;;;;;;;14.50;1.33;;;;;;;2.58;39.57;102256.53;5036933;28;20029;-74
2022/01/20 09:49:31;;;;;;;9.40;0.90;;;;;;;2.42;40.12;102257.09;5014719;23;20521;-74
2022/01/20 09:51:59;;;;;;;12.45;0.47;;;;;;;2.30;39.95;102262.94;4971549;28;20042;-74
2022/01/20 09:54:35;;;;;;;10.05;0.63;;;;;;;2.96;38.48;102261.38;4990508;28;20064;-74
2022/01/20 09:57:07;;;;;;;7.15;0.85;;;;;;;2.83;38.05;102251.72;5006959;28;20033;-75
2022/01/20 09:59:33;;;;;;;8.15;1.38;;;;;;;2.91;38.68;102260.44;5013926;28;20033;-74
2022/01/20 10:01:59;;;;;;;12.35;0.50;;;;;;;2.16;41.19;102275.59;5004466;28;20113;-74
2022/01/20 10:04:35;;;;;;;5.25;0.77;;;;;;;1.86;44.23;102286.22;4989938;28;20091;-74
2022/01/20 10:07:35;;;;;;;10.45;1.40;;;;;;;0.86;47.70;102294.41;4999028;28;20041;-74
2022/01/20 10:10:10;;;;;;;14.32;0.68;;;;;;;1.27;47.28;102285.00;4999607;28;20087;-74
2022/01/20 10:13:07;;;;;;;9.82;1.15;;;;;;;1.08;47.46;102288.91;4946336;28;20503;-76
2022/01/20 10:16:01;;;;;;;6.93;0.85;;;;;;;1.88;44.74;102264.78;5003892;28;20090;-75
2022/01/20 10:18:47;;;;;;;9.20;0.80;;;;;;;2.52;43.61;102265.03;5005087;28;20030;-75
2022/01/20 10:21:15;;;;;;;13.57;0.93;;;;;;;2.14;43.58;102267.81;4986965;28;20048;-75
2022/01/20 10:24:13;;;;;;;3.47;0.43;;;;;;;2.52;40.74;102284.81;4992836;28;20042;-75
2022/01/20 10:26:58;;;;;;;8.88;0.55;;;;;;;3.00;40.01;102285.53;4989461;28;20380;-75
2022/01/20 10:29:24;;;;;;;9.25;1.83;;;;;;;3.04;39.98;102300.22;5002213;28;20039;-74
2022/01/20 10:31:52;;;;;;;5.18;0.30;;;;;;;1.82;43.06;102318.81;5000092;28;20036;-74
2022/01/20 10:34:31;;;;;;;5.53;0.30;;;;;;;1.35;46.79;102323.84;5001198;28;20033;-75
2022/01/20 10:37:07;;;;;;;8.10;0.45;;;;;;;0.91;47.61;102326.28;4986775;28;20046;-75
2022/01/20 10:39:44;;;;;;;8.63;0.70;;;;;;;0.61;48.44;102328.97;4995007;28;20117;-74
2022/01/20 10:42:13;;;;;;;1.83;0.05;;;;;;;-0.22;50.49;102340.50;5002182;28;20427;-74
2022/01/20 10:44:41;;;;;;;5.15;0.30;;;;;;;-0.51;52.89;102315.69;5022901;28;20494;-74
2022/01/20 10:47:13;;;;;;;4.35;0.38;;;;;;;-0.69;53.14;102309.16;5004704;28;20095;-73
2022/01/20 10:49:39;;;;;;;6.93;0.63;;;;;;;-0.54;51.88;102310.47;5003026;28;20227;-74
2022/01/20 10:52:09;;;;;;;4.00;0.80;;;;;;;-0.43;51.96;102303.94;4992333;28;20151;-73
2022/01/20 10:54:37;;;;;;;10.27;1.95;;;;;;;0.06;50.72;102300.16;4977435;28;20022;-73
2022/01/20 10:57:03;;;;;;;8.95;1.75;;;;;;;1.09;49.22;102300.94;4988567;28;20048;-74
2022/01/20 10:59:32;;;;;;;13.02;1.13;;;;;;;1.19;49.21;102307.16;5003861;28;20470;-74
2022/01/20 11:02:00;;;;;;;11.07;1.85;;;;;;;1.71;48.06;102289.38;4978300;28;20257;-74
2022/01/20 11:04:27;;;;;;;14.52;2.17;;;;;;;2.22;46.56;102291.19;4988188;28;20130;-74
2022/01/20 11:06:56;;;;;;;12.45;1.75;;;;;;;2.24;47.09;102299.84;5002682;28;20036;-75
2022/01/20 11:09:30;;;;;;;13.95;0.90;;;;;;;2.04;47.96;102291.75;4991389;28;20379;-74
2022/01/20 11:12:31;;;;;;;8.85;0.93;;;;;;;1.34;49.27;102319.50;4987757;28;20081;-74
2022/01/20 11:15:06;;;;;;;4.65;0.20;;;;;;;0.92;49.05;102316.84;5003908;28;20492;-74
2022/01/20 11:17:34;;;;;;;9.43;0.90;;;;;;;0.04;51.27;102327.50;5000707;28;20038;-74
2022/01/20 11:20:17;;;;;;;10.52;2.05;;;;;;;-0.40;54.26;102334.84;4991791;28;20030;-74
2022/01/20 11:23:04;;;;;;;5.72;1.00;;;;;;;-0.95;54.51;102317.75;4997542;28;20042;-74
2022/01/20 11:26:03;;;;;;;5.47;0.60;;;;;;;-0.69;51.57;102304.03;5007448;28;20061;-74
2022/01/20 11:28:59;;;;;;;2.60;0.20;;;;;;;-0.42;50.66;102293.69;4990487;28;20045;-74
2022/01/20 11:31:52;;;;;;;1.95;0.10;;;;;;;-0.67;50.28;102289.53;4986775;28;20041;-74
2022/01/20 11:34:41;;;;;;;2.20;0.15;;;;;;;-0.27;50.02;102285.53;4989898;28;20213;-74
2022/01/20 11:37:09;;;;;;;3.08;0.17;;;;;;;0.28;48.92;102268.16;4989382;28;20383;-74
2022/01/20 11:39:36;;;;;;;5.75;0.57;;;;;;;0.74;47.73;102270.94;5003704;28;20073;-74
2022/01/20 11:42:02;;;;;;;6.50;0.57;;;;;;;0.59;48.02;102269.78;4987445;28;20085;-74
2022/01/20 11:44:31;;;;;;;7.07;0.50;;;;;;;1.09;46.95;102282.91;4990769;28;20046;-74
2022/01/20 11:47:08;;;;;;;12.68;0.73;;;;;;;2.03;46.10;102286.53;4986733;28;20081;-75
2022/01/20 11:49:37;;;;;;;12.50;0.63;;;;;;;2.24;45.22;102292.09;4998768;28;20514;-75
2022/01/20 11:52:03;;;;;;;3.75;1.25;;;;;;;2.98;43.80;102298.44;4987337;28;20037;-74
2022/01/20 11:54:32;;;;;;;8.10;0.80;;;;;;;3.03;43.32;102289.03;4987242;28;20479;-74
2022/01/20 11:57:06;;;;;;;12.27;1.23;;;;;;;2.73;43.93;102286.84;4987092;28;20064;-74
2022/01/20 11:59:57;;;;;;;10.40;2.47;;;;;;;1.91;45.80;102288.06;4988820;28;20034;-74
2022/01/20 12:02:41;;;;;;;7.60;0.77;;;;;;;0.91;46.32;102292.81;4989661;28;20050;-74
2022/01/20 12:05:18;;;;;;;7.65;1.15;;;;;;;1.35;43.76;102302.34;4986238;28;20069;-73
2022/01/20 12:08:18;;;;;;;4.70;0.55;;;;;;;1.31;43.34;102306.56;4983978;28;20037;-74
2022/01/20 12:10:59;;;;;;;11.77;1.20;;;;;;;1.47;43.93;102289.75;5002718;28;20065;-75
2022/01/20 12:13:25;;;;;;;3.45;1.05;;;;;;;2.02;43.79;102277.94;4988804;28;20049;-74
2022/01/20 12:15:57;;;;;;;7.38;1.02;;;;;;;2.04;44.52;102281.41;4987672;28;21461;-76
2022/01/20 12:18:23;;;;;;;9.80;0.73;;;;;;;1.77;44.31;102286.03;4974331;28;20038;-75
2022/01/20 12:20:49;;;;;;;10.52;0.70;;;;;;;2.25;43.88;102291.25;4988759;28;20377;-74
2022/01/20 12:23:16;;;;;;;11.35;0.70;;;;;;;1.94;44.84;102290.69;4988169;28;20050;-75
2022/01/20 12:25:42;;;;;;;8.48;1.13;;;;;;;2.05;44.99;102313.22;4986256;28;20029;-75
2022/01/20 12:28:14;;;;;;;5.10;1.05;;;;;;;1.35;48.55;102307.50;5003617;28;20092;-75
2022/01/20 12:30:47;;;;;;;6.47;0.43;;;;;;;1.59;48.60;102291.72;4987635;28;20034;-73
2022/01/20 12:33:16;;;;;;;1.98;0.68;;;;;;;0.92;48.19;102296.25;5002803;28;20045;-74
2022/01/20 12:35:44;;;;;;;3.55;0.73;;;;;;;1.01;46.74;102281.00;4986805;28;20051;-75
2022/01/20 12:38:28;;;;;;;3.88;1.05;;;;;;;0.72;45.34;102293.19;4999146;28;20053;-74
2022/01/20 12:41:14;;;;;;;6.53;0.52;;;;;;;0.71;44.86;102309.50;5000257;28;20064;-74
2022/01/20 12:43:44;;;;;;;7.10;0.70;;;;;;;1.10;43.25;102302.69;5010042;28;20053;-74
2022/01/20 12:46:13;;;;;;;5.82;0.50;;;;;;;0.52;44.06;102298.72;5008889;28;20033;-74